createdAt,value
2022-08-14T00:02:01.401Z,2.97
2022-08-14T00:04:34.392Z,3.43
2022-08-14T00:07:11.601Z,3.40
2022-08-14T00:09:55.948Z,3.50
2022-08-14T00:12:33.978Z,3.53
2022-08-14T00:15:08.116Z,3.67
2022-08-14T00:17:38.098Z,3.90
2022-08-14T00:20:23.832Z,3.50
2022-08-14T00:22:57.589Z,3.87
2022-08-14T00:25:30.621Z,3.67
2022-08-14T00:28:15.455Z,3.83
2022-08-14T00:30:46.890Z,3.77
2022-08-14T00:33:16.463Z,3.50
2022-08-14T00:36:35.363Z,3.17
2022-08-14T00:38:35.321Z,3.40
2022-08-14T00:41:04.874Z,3.27
2022-08-14T00:43:33.261Z,3.47
2022-08-14T00:46:05.342Z,3.40
2022-08-14T00:48:36.913Z,3.50
2022-08-14T00:51:07.778Z,3.20
2022-08-14T00:53:38.534Z,3.47
2022-08-14T00:56:08.644Z,2.80
2022-08-14T00:58:45.490Z,3.77
2022-08-14T01:01:19.196Z,3.93
2022-08-14T01:03:49.718Z,3.87
2022-08-14T01:06:21.529Z,3.60
2022-08-14T01:08:58.110Z,3.30
2022-08-14T01:11:35.548Z,3.53
2022-08-14T01:14:25.607Z,3.83
2022-08-14T01:16:55.592Z,3.73
2022-08-14T01:19:41.971Z,3.93
2022-08-14T01:22:13.351Z,3.77
2022-08-14T01:24:47.275Z,3.80
2022-08-14T01:27:18.763Z,3.40
2022-08-14T01:30:01.043Z,4.00
2022-08-14T01:32:37.570Z,3.73
2022-08-14T01:36:04.029Z,3.30
2022-08-14T01:38:10.352Z,3.57
2022-08-14T01:40:41.742Z,3.80
2022-08-14T01:43:14.855Z,3.20
2022-08-14T01:45:49.184Z,3.67
2022-08-14T01:48:28.737Z,3.70
2022-08-14T01:51:01.330Z,3.90
2022-08-14T01:53:32.178Z,4.20
2022-08-14T01:56:05.716Z,3.50
2022-08-14T01:58:57.738Z,3.77
2022-08-14T02:01:27.252Z,3.30
2022-08-14T02:03:57.461Z,3.83
2022-08-14T02:06:32.292Z,3.47
2022-08-14T02:09:09.135Z,3.40
2022-08-14T02:11:47.949Z,3.13
2022-08-14T02:14:31.433Z,3.20
2022-08-14T02:17:00.761Z,3.57
2022-08-14T02:19:31.618Z,3.77
2022-08-14T02:22:03.387Z,3.60
2022-08-14T02:24:39.618Z,3.67
2022-08-14T02:28:25.440Z,3.30
2022-08-14T02:30:02.003Z,3.57
2022-08-14T02:32:37.091Z,3.70
2022-08-14T02:35:10.435Z,3.60
2022-08-14T02:37:47.918Z,3.70
2022-08-14T02:40:18.766Z,3.67
2022-08-14T02:42:55.286Z,3.43
2022-08-14T02:45:33.028Z,3.63
2022-08-14T02:48:10.148Z,3.53
2022-08-14T02:50:39.264Z,3.33
2022-08-14T02:53:08.706Z,3.60
2022-08-14T02:55:39.122Z,3.60
2022-08-14T02:58:07.914Z,3.40
2022-08-14T03:00:40.083Z,3.53
2022-08-14T03:03:09.423Z,3.73
2022-08-14T03:05:41.315Z,3.80
2022-08-14T03:08:15.811Z,3.70
2022-08-14T03:10:48.874Z,4.00
2022-08-14T03:13:19.740Z,3.93
2022-08-14T03:15:56.054Z,3.53
2022-08-14T03:18:31.246Z,3.60
2022-08-14T03:21:02.471Z,3.47
2022-08-14T03:23:34.209Z,3.97
2022-08-14T03:26:12.574Z,3.80
2022-08-14T03:28:46.926Z,3.57
2022-08-14T03:31:15.574Z,3.77
2022-08-14T03:33:45.352Z,4.00
2022-08-14T03:37:39.445Z,3.90
2022-08-14T03:39:21.843Z,4.40
2022-08-14T03:41:53.743Z,5.17
2022-08-14T03:45:27.317Z,4.23
2022-08-14T03:47:12.279Z,3.97
2022-08-14T03:49:44.041Z,4.50
2022-08-14T03:52:27.960Z,4.40
2022-08-14T03:55:06.589Z,4.10
2022-08-14T03:57:37.421Z,4.10
2022-08-14T04:00:09.024Z,4.27
2022-08-14T04:02:47.505Z,4.07
2022-08-14T04:05:21.803Z,3.77
2022-08-14T04:08:00.469Z,3.67
2022-08-14T04:10:40.070Z,3.90
2022-08-14T04:13:09.982Z,3.57
2022-08-14T04:15:56.481Z,4.10
2022-08-14T04:18:26.962Z,5.73
2022-08-14T04:20:57.080Z,4.30
2022-08-14T04:23:29.866Z,4.80
2022-08-14T04:26:01.635Z,4.00
2022-08-14T04:29:06.863Z,4.20
2022-08-14T04:31:24.717Z,4.10
2022-08-14T04:34:20.701Z,4.23
2022-08-14T04:37:10.674Z,4.60
2022-08-14T04:39:57.890Z,4.70
2022-08-14T04:42:46.788Z,4.50
2022-08-14T04:45:17.670Z,4.20
2022-08-14T04:48:03.709Z,4.40
2022-08-14T04:50:44.651Z,4.40
2022-08-14T04:53:14.521Z,4.27
2022-08-14T04:55:45.903Z,4.43
2022-08-14T04:58:21.747Z,5.20
2022-08-14T05:01:03.033Z,4.97
2022-08-14T05:03:33.356Z,5.10
2022-08-14T05:06:03.001Z,4.63
2022-08-14T05:08:56.859Z,5.37
2022-08-14T05:11:20.576Z,5.23
2022-08-14T05:16:39.803Z,5.43
2022-08-14T05:19:18.207Z,5.43
2022-08-14T05:22:01.104Z,6.57
2022-08-14T05:24:44.726Z,6.17
2022-08-14T05:27:13.216Z,6.50
2022-08-14T05:29:44.833Z,6.37
2022-08-14T05:32:16.022Z,5.80
2022-08-14T05:34:46.193Z,6.50
2022-08-14T05:37:15.350Z,6.80
2022-08-14T05:39:44.998Z,6.73
2022-08-14T05:42:22.072Z,6.57
2022-08-14T05:44:56.199Z,7.23
2022-08-14T05:47:28.706Z,7.43
2022-08-14T05:49:58.913Z,7.63
2022-08-14T05:52:39.061Z,6.97
2022-08-14T05:55:09.310Z,6.90
2022-08-14T05:57:47.556Z,6.40
2022-08-14T06:00:24.550Z,7.03
2022-08-14T06:03:00.244Z,6.23
2022-08-14T06:05:29.638Z,5.93
2022-08-14T06:07:58.943Z,6.17
2022-08-14T06:10:28.742Z,5.23
2022-08-14T06:12:58.269Z,5.33
2022-08-14T06:15:30.003Z,5.57
2022-08-14T06:18:03.162Z,5.20
2022-08-14T06:20:32.080Z,5.50
2022-08-14T06:23:02.839Z,4.80
2022-08-14T06:25:31.769Z,4.60
2022-08-14T06:28:03.786Z,5.20
2022-08-14T06:30:46.353Z,4.50
2022-08-14T06:33:18.277Z,4.40
2022-08-14T06:35:47.231Z,4.10
2022-08-14T06:38:17.944Z,4.63
2022-08-14T06:40:46.605Z,4.13
2022-08-14T06:43:15.721Z,4.17
2022-08-14T06:45:48.357Z,4.47
2022-08-14T06:48:24.328Z,4.53
2022-08-14T06:50:53.234Z,4.10
2022-08-14T06:53:21.856Z,4.10
2022-08-14T06:56:01.155Z,4.57
2022-08-14T06:58:32.165Z,4.40
2022-08-14T07:01:24.910Z,4.40
2022-08-14T07:04:22.895Z,4.27
2022-08-14T07:06:51.742Z,4.00
2022-08-14T07:09:24.342Z,3.93
2022-08-14T07:11:52.942Z,3.57
2022-08-14T07:14:21.255Z,3.73
2022-08-14T07:16:49.754Z,3.50
2022-08-14T07:19:21.004Z,3.47
2022-08-14T07:21:50.304Z,3.47
2022-08-14T07:24:22.173Z,3.67
2022-08-14T07:26:59.443Z,3.50
2022-08-14T07:29:28.798Z,4.10
2022-08-14T07:31:57.383Z,3.70
2022-08-14T07:34:36.616Z,3.67
2022-08-14T07:37:09.923Z,3.50
2022-08-14T07:39:38.803Z,3.00
2022-08-14T07:42:11.931Z,2.93
2022-08-14T07:44:46.217Z,2.97
2022-08-14T07:47:15.955Z,3.40
2022-08-14T07:49:55.461Z,3.25
2022-08-14T07:52:30.782Z,4.00
2022-08-14T07:54:59.662Z,3.08
2022-08-14T07:57:28.338Z,3.20
2022-08-14T07:59:56.678Z,3.15
2022-08-14T08:02:29.844Z,3.10
2022-08-14T08:05:02.706Z,2.75
2022-08-14T08:07:31.932Z,3.03
2022-08-14T08:10:02.060Z,3.30
2022-08-14T08:12:32.606Z,2.97
2022-08-14T08:15:07.437Z,3.20
2022-08-14T08:17:38.864Z,2.83
2022-08-14T08:20:20.039Z,2.70
2022-08-14T08:22:49.745Z,3.05
2022-08-14T08:25:24.377Z,3.38
2022-08-14T08:27:56.822Z,2.92
2022-08-14T08:30:26.576Z,3.30
2022-08-14T08:32:56.238Z,3.25
2022-08-14T08:35:32.987Z,3.35
2022-08-14T08:39:18.268Z,3.30
2022-08-14T08:41:10.954Z,3.38
2022-08-14T08:43:45.834Z,3.45
2022-08-14T08:46:21.707Z,3.03
2022-08-14T08:51:25.157Z,3.25
2022-08-14T08:54:02.852Z,2.88
2022-08-14T08:56:35.870Z,2.83
2022-08-14T08:59:18.244Z,2.90
2022-08-14T09:01:52.241Z,2.65
2022-08-14T09:04:21.081Z,2.42
2022-08-14T09:07:00.070Z,3.10
2022-08-14T09:09:54.509Z,2.60
2022-08-14T09:12:31.991Z,2.80
2022-08-14T09:15:02.175Z,2.83
2022-08-14T09:17:30.923Z,2.65
2022-08-14T09:20:01.766Z,2.70
2022-08-14T09:22:35.347Z,3.03
2022-08-14T09:25:07.048Z,2.72
2022-08-14T09:27:35.910Z,2.80
2022-08-14T09:30:30.605Z,2.78
2022-08-14T09:33:00.889Z,2.53
2022-08-14T09:35:34.809Z,2.33
2022-08-14T09:38:19.495Z,2.80
2022-08-14T09:41:01.419Z,2.65
2022-08-14T09:43:32.688Z,2.50
2022-08-14T09:46:02.561Z,2.80
2022-08-14T09:48:31.601Z,2.65
2022-08-14T09:54:19.006Z,2.97
2022-08-14T09:56:33.178Z,2.75
2022-08-14T09:59:14.871Z,2.75
2022-08-14T10:01:52.496Z,2.60
2022-08-14T10:04:33.510Z,2.60
2022-08-14T10:07:06.259Z,2.50
2022-08-14T10:09:57.711Z,2.40
2022-08-14T10:12:42.353Z,2.50
2022-08-14T10:15:17.703Z,2.60
2022-08-14T10:17:46.869Z,2.42
2022-08-14T10:20:40.226Z,2.30
2022-08-14T10:23:16.314Z,2.38
2022-08-14T10:25:51.157Z,2.20
2022-08-14T10:28:39.278Z,2.15
2022-08-14T10:31:25.596Z,1.80
2022-08-14T10:34:02.201Z,2.00
2022-08-14T10:36:36.842Z,2.17
2022-08-14T10:39:09.979Z,2.15
2022-08-14T10:41:46.604Z,2.08
2022-08-14T10:44:21.597Z,2.30
2022-08-14T10:47:37.421Z,2.17
2022-08-14T10:49:53.194Z,2.60
2022-08-14T10:52:22.699Z,2.40
2022-08-14T10:54:56.289Z,2.30
2022-08-14T10:57:27.110Z,2.63
2022-08-14T10:59:56.890Z,2.90
2022-08-14T11:02:45.056Z,2.60
2022-08-14T11:05:19.513Z,2.47
2022-08-14T11:07:57.334Z,2.58
2022-08-14T11:10:28.792Z,2.22
2022-08-14T11:12:59.457Z,2.22
2022-08-14T11:15:28.510Z,2.33
2022-08-14T11:18:01.458Z,2.50
2022-08-14T11:20:31.725Z,2.25
2022-08-14T11:23:01.257Z,2.40
2022-08-14T11:25:36.852Z,2.80
2022-08-14T11:28:19.247Z,2.63
2022-08-14T11:30:53.556Z,2.40
2022-08-14T11:33:24.581Z,2.63
2022-08-14T11:35:53.690Z,2.30
2022-08-14T11:38:29.304Z,2.42
2022-08-14T11:40:58.636Z,2.78
2022-08-14T11:43:30.576Z,2.60
2022-08-14T11:46:03.716Z,2.65
2022-08-14T11:49:02.642Z,2.70
2022-08-14T11:51:26.184Z,2.70
2022-08-14T11:54:03.154Z,2.53
2022-08-14T11:56:36.848Z,2.60
2022-08-14T11:59:10.329Z,2.60
2022-08-14T12:01:41.137Z,2.45
2022-08-14T12:04:32.227Z,2.33
2022-08-14T12:06:59.843Z,2.33
2022-08-14T12:09:30.708Z,2.83
2022-08-14T12:11:59.204Z,2.40
2022-08-14T12:14:35.208Z,2.33
2022-08-14T12:17:09.413Z,2.22
2022-08-14T12:19:51.339Z,2.30
2022-08-14T12:22:33.941Z,2.20
2022-08-14T12:25:06.048Z,2.42
2022-08-14T12:27:53.612Z,2.53
2022-08-14T12:30:39.670Z,2.42
2022-08-14T12:33:24.126Z,2.38
2022-08-14T12:35:57.473Z,2.25
2022-08-14T12:38:36.582Z,2.30
2022-08-14T12:41:07.914Z,2.30
2022-08-14T12:43:46.090Z,2.30
2022-08-14T12:46:27.342Z,2.13
2022-08-14T12:48:57.393Z,2.53
2022-08-14T12:51:27.565Z,2.38
2022-08-14T12:53:59.644Z,2.20
2022-08-14T12:56:33.840Z,2.47
2022-08-14T12:59:03.342Z,2.40
2022-08-14T13:01:59.173Z,2.40
2022-08-14T13:04:23.466Z,2.20
2022-08-14T13:06:53.083Z,2.33
2022-08-14T13:09:27.932Z,2.40
2022-08-14T13:12:32.713Z,2.00
2022-08-14T13:14:57.111Z,2.33
2022-08-14T13:17:28.360Z,2.30
2022-08-14T13:19:58.022Z,2.20
2022-08-14T13:22:33.215Z,2.30
2022-08-14T13:25:05.238Z,2.30
2022-08-14T13:27:38.604Z,2.45
2022-08-14T13:30:10.410Z,1.98
2022-08-14T13:32:44.831Z,2.03
2022-08-14T13:35:17.464Z,2.35
2022-08-14T13:37:47.689Z,2.30
2022-08-14T13:40:16.274Z,2.40
2022-08-14T13:42:46.701Z,2.20
2022-08-14T13:45:22.294Z,2.42
2022-08-14T13:47:55.346Z,2.40
2022-08-14T13:50:23.765Z,2.30
2022-08-14T13:52:55.039Z,2.40
2022-08-14T13:55:25.591Z,2.35
2022-08-14T13:58:04.107Z,2.40
2022-08-14T14:00:35.819Z,2.35
2022-08-14T14:03:22.319Z,2.25
2022-08-14T14:05:54.315Z,2.60
2022-08-14T14:08:45.977Z,2.40
2022-08-14T14:11:14.160Z,2.45
2022-08-14T14:13:45.280Z,2.50
2022-08-14T14:16:15.212Z,2.70
2022-08-14T14:18:49.142Z,2.40
2022-08-14T14:21:22.003Z,2.58
2022-08-14T14:23:51.580Z,2.38
2022-08-14T14:26:23.919Z,2.45
2022-08-14T14:28:53.466Z,2.55
2022-08-14T14:31:29.658Z,2.58
2022-08-14T14:34:07.678Z,2.20
2022-08-14T14:36:55.446Z,2.22
2022-08-14T14:39:25.688Z,2.50
2022-08-14T14:41:56.828Z,2.58
2022-08-14T14:44:27.581Z,2.50
2022-08-14T14:46:58.248Z,2.25
2022-08-14T14:49:41.571Z,2.13
2022-08-14T14:52:23.218Z,2.20
2022-08-14T14:54:52.106Z,2.50
2022-08-14T14:57:21.170Z,2.30
2022-08-14T14:59:49.997Z,2.40
2022-08-14T15:02:25.741Z,2.35
2022-08-14T15:04:58.139Z,2.17
2022-08-14T15:07:26.695Z,2.25
2022-08-14T15:09:58.231Z,2.10
2022-08-14T15:12:55.682Z,2.42
2022-08-14T15:15:16.227Z,2.10
2022-08-14T15:17:45.201Z,2.50
2022-08-14T15:20:29.850Z,2.25
2022-08-14T15:23:01.007Z,2.50
2022-08-14T15:25:41.241Z,2.30
2022-08-14T15:28:12.741Z,2.35
2022-08-14T15:30:41.726Z,2.33
2022-08-14T15:33:10.201Z,2.17
2022-08-14T15:35:45.915Z,2.30
2022-08-14T15:38:17.588Z,2.20
2022-08-14T15:40:51.541Z,2.20
2022-08-14T15:43:27.311Z,2.50
2022-08-14T15:45:59.643Z,2.42
2022-08-14T15:48:29.606Z,2.30
2022-08-14T15:50:59.608Z,2.63
2022-08-14T15:53:31.656Z,2.70
2022-08-14T15:56:00.770Z,2.35
2022-08-14T15:58:30.781Z,2.38
2022-08-14T16:01:31.207Z,2.70
2022-08-14T16:04:05.401Z,2.50
2022-08-14T16:06:37.141Z,2.58
2022-08-14T16:09:11.150Z,2.78
2022-08-14T16:11:47.370Z,2.80
2022-08-14T16:14:21.287Z,2.70
2022-08-14T16:16:56.776Z,2.50
2022-08-14T16:19:31.071Z,2.72
2022-08-14T16:22:57.587Z,2.80
2022-08-14T16:24:59.920Z,2.53
2022-08-14T16:27:34.238Z,2.75
2022-08-14T16:30:10.814Z,2.80
2022-08-14T16:32:54.935Z,2.72
2022-08-14T16:35:26.463Z,2.88
2022-08-14T16:38:19.329Z,2.80
2022-08-14T16:41:23.216Z,2.90
2022-08-14T16:43:54.000Z,2.80
2022-08-14T16:46:28.712Z,2.70
2022-08-14T16:48:58.728Z,2.47
2022-08-14T16:51:28.072Z,2.75
2022-08-14T16:53:59.131Z,2.80
2022-08-14T16:56:34.954Z,3.05
2022-08-14T16:59:09.451Z,2.70
2022-08-14T17:01:41.668Z,2.90
2022-08-14T17:04:15.034Z,2.35
2022-08-14T17:06:54.974Z,2.78
2022-08-14T17:09:44.884Z,2.97
2022-08-14T17:12:28.586Z,2.80
2022-08-14T17:15:10.153Z,2.88
2022-08-14T17:17:57.475Z,2.97
2022-08-14T17:20:52.912Z,3.08
2022-08-14T17:23:15.965Z,3.20
2022-08-14T17:25:50.813Z,2.83
2022-08-14T17:28:52.336Z,3.10
2022-08-14T17:31:12.150Z,3.20
2022-08-14T17:36:30.874Z,2.65
2022-08-14T17:39:02.631Z,2.78
2022-08-14T17:41:36.202Z,2.90
2022-08-14T17:44:20.240Z,3.17
2022-08-14T17:46:55.396Z,2.90
2022-08-14T17:49:27.213Z,3.10
2022-08-14T17:52:08.992Z,3.22
2022-08-14T17:54:47.304Z,3.13
2022-08-14T17:57:23.424Z,3.15
2022-08-14T17:59:54.438Z,2.90
2022-08-14T18:02:31.597Z,3.05
2022-08-14T18:05:03.177Z,3.33
2022-08-14T18:07:59.273Z,3.70
2022-08-14T18:10:54.794Z,3.05
2022-08-14T18:13:10.990Z,3.35
2022-08-14T18:15:42.719Z,2.97
2022-08-14T18:18:16.237Z,3.33
2022-08-14T18:21:40.624Z,2.90
2022-08-14T18:23:33.179Z,3.30
2022-08-14T18:26:37.140Z,3.50
2022-08-14T18:29:00.046Z,2.83
2022-08-14T18:31:42.290Z,3.30
2022-08-14T18:34:30.832Z,3.10
2022-08-14T18:37:14.274Z,3.53
2022-08-14T18:40:03.587Z,3.27
2022-08-14T18:42:44.019Z,3.27
2022-08-14T18:45:16.107Z,3.83
2022-08-14T18:48:14.787Z,3.37
2022-08-14T18:50:52.648Z,3.73
2022-08-14T18:53:25.063Z,3.80
2022-08-14T18:55:55.048Z,2.97
2022-08-14T18:58:31.058Z,3.13
2022-08-14T19:01:04.507Z,3.27
2022-08-14T19:03:58.786Z,3.10
2022-08-14T19:06:56.401Z,2.80
2022-08-14T19:09:43.775Z,3.40
2022-08-14T19:12:44.350Z,3.23
2022-08-14T19:15:21.157Z,3.00
2022-08-14T19:18:14.839Z,3.23
2022-08-14T19:20:52.725Z,3.03
2022-08-14T19:23:22.726Z,3.40
2022-08-14T19:25:54.374Z,3.30
2022-08-14T19:28:31.022Z,3.10
2022-08-14T19:31:21.149Z,3.60
2022-08-14T19:33:55.254Z,3.40
2022-08-14T19:36:31.735Z,3.27
2022-08-14T19:39:04.508Z,3.83
2022-08-14T19:41:34.449Z,3.50
2022-08-14T19:44:13.313Z,3.90
2022-08-14T19:47:02.549Z,3.97
2022-08-14T19:50:08.861Z,3.83
2022-08-14T19:52:26.218Z,3.60
2022-08-14T19:54:58.717Z,3.60
2022-08-14T19:57:28.960Z,4.13
2022-08-14T20:00:04.519Z,3.50
2022-08-14T20:02:37.661Z,3.60
2022-08-14T20:05:09.110Z,3.50
2022-08-14T20:08:00.523Z,4.00
2022-08-14T20:11:08.124Z,3.43
2022-08-14T20:13:32.129Z,3.40
2022-08-14T20:16:12.336Z,4.70
2022-08-14T20:18:51.775Z,3.83
2022-08-14T20:21:34.435Z,3.53
2022-08-14T20:24:30.613Z,3.33
2022-08-14T20:27:20.346Z,3.70
2022-08-14T20:30:28.917Z,3.70
2022-08-14T20:32:52.214Z,4.03
2022-08-14T20:35:35.232Z,3.70
2022-08-14T20:38:32.006Z,4.00
2022-08-14T20:40:55.665Z,4.07
2022-08-14T20:43:44.470Z,3.77
2022-08-14T20:46:14.213Z,3.80
2022-08-14T20:48:58.268Z,3.73
2022-08-14T20:51:36.444Z,4.03
2022-08-14T20:54:08.160Z,4.00
2022-08-14T20:56:38.392Z,4.00
2022-08-14T20:59:17.442Z,3.80
2022-08-14T21:01:48.472Z,4.30
2022-08-14T21:04:26.498Z,4.60
2022-08-14T21:07:25.020Z,4.03
2022-08-14T21:10:05.034Z,3.80
2022-08-14T21:12:34.817Z,4.00
2022-08-14T21:15:09.991Z,4.20
2022-08-14T21:17:43.337Z,4.53
2022-08-14T21:20:26.382Z,4.03
2022-08-14T21:22:56.542Z,4.20
2022-08-14T21:25:31.594Z,3.80
2022-08-14T21:28:01.067Z,4.30
2022-08-14T21:30:51.743Z,3.93
2022-08-14T21:33:21.517Z,4.07
2022-08-14T21:35:55.471Z,4.00
2022-08-14T21:38:31.305Z,3.67
2022-08-14T21:41:42.677Z,4.50
2022-08-14T21:44:05.320Z,4.20
2022-08-14T21:46:47.834Z,4.03
2022-08-14T21:49:18.586Z,4.50
2022-08-14T21:51:55.002Z,4.30
2022-08-14T21:54:30.279Z,4.00
2022-08-14T21:57:02.260Z,3.90
2022-08-14T21:59:32.294Z,4.17
2022-08-14T22:02:03.796Z,4.20
2022-08-14T22:04:40.102Z,4.33
2022-08-14T22:07:11.024Z,4.30
2022-08-14T22:09:42.774Z,3.70
2022-08-14T22:12:58.652Z,3.80
2022-08-14T22:15:02.542Z,4.13
2022-08-14T22:17:34.406Z,4.43
2022-08-14T22:20:06.839Z,4.27
2022-08-14T22:22:35.490Z,4.40
2022-08-14T22:25:08.713Z,4.40
2022-08-14T22:27:55.321Z,4.03
2022-08-14T22:30:25.261Z,4.10
2022-08-14T22:32:57.797Z,4.23
2022-08-14T22:35:28.403Z,4.07
2022-08-14T22:38:34.694Z,4.20
2022-08-14T22:41:05.414Z,4.20
2022-08-14T22:43:36.590Z,4.30
2022-08-14T22:46:14.806Z,4.07
2022-08-14T22:48:49.624Z,4.40
2022-08-14T22:51:20.575Z,4.33
2022-08-14T22:53:52.218Z,4.03
2022-08-14T22:56:22.042Z,4.43
2022-08-14T22:58:53.758Z,4.10
2022-08-14T23:01:24.290Z,4.40
2022-08-14T23:04:12.878Z,4.30
2022-08-14T23:07:04.851Z,4.40
2022-08-14T23:09:35.183Z,4.20
2022-08-14T23:12:05.949Z,4.40
2022-08-14T23:14:54.357Z,4.40
2022-08-14T23:17:23.529Z,4.00
2022-08-14T23:19:56.180Z,4.73
2022-08-14T23:22:27.051Z,4.30
2022-08-14T23:24:57.755Z,4.00
2022-08-14T23:27:32.007Z,4.23
2022-08-14T23:30:31.809Z,4.00
2022-08-14T23:33:03.887Z,4.10
2022-08-14T23:35:33.653Z,4.13
2022-08-14T23:38:06.890Z,3.97
2022-08-14T23:40:54.121Z,4.20
2022-08-14T23:43:23.540Z,4.30
2022-08-14T23:45:55.554Z,4.03
2022-08-14T23:48:28.402Z,4.60
2022-08-14T23:50:58.806Z,4.43
2022-08-14T23:53:48.259Z,4.77
2022-08-14T23:56:31.747Z,4.70
2022-08-14T23:59:01.926Z,4.40
